Time;durP1;ratioP1;P1;durP2;ratioP2;P2;SDS_P1;SDS_P2;PMS_P1;PMS_P2;Temp;Humidity;BMP_temperature;BMP_pressure;BME280_temperature;BME280_humidity;BME280_pressure;Samples;Min_cycle;Max_cycle;Signal;HPM_P1;HPM_P2
2021/07/09 00:01:53;;;;;;;6.75;5.30;;;;;;;16.32;100.00;99859.09;5114176;28;20507;-73
2021/07/09 00:04:20;;;;;;;12.48;6.90;;;;;;;16.40;100.00;99860.22;5113967;28;20297;-74
2021/07/09 00:06:47;;;;;;;7.93;5.97;;;;;;;16.55;98.03;99849.13;5114517;28;20271;-74
2021/07/09 00:09:13;;;;;;;9.15;5.47;;;;;;;16.60;97.69;99846.91;5113976;28;20202;-74
2021/07/09 00:11:45;;;;;;;9.15;5.85;;;;;;;16.61;97.46;99845.91;5114205;28;20278;-72
2021/07/09 00:14:12;;;;;;;5.40;4.90;;;;;;;16.52;98.59;99846.66;5113615;28;20291;-73
2021/07/09 00:16:41;;;;;;;6.72;5.25;;;;;;;16.27;100.00;99835.00;5114169;28;20191;-73
2021/07/09 00:19:08;;;;;;;6.25;5.25;;;;;;;16.22;100.00;99838.06;5094205;28;20336;-73
2021/07/09 00:21:36;;;;;;;7.65;5.75;;;;;;;16.26;100.00;99833.28;5111076;28;20202;-72
2021/07/09 00:24:04;;;;;;;5.85;5.35;;;;;;;16.38;100.00;99832.28;5113541;28;20275;-72
2021/07/09 00:26:31;;;;;;;7.97;6.10;;;;;;;16.55;99.52;99830.09;5103408;28;20192;-72
2021/07/09 00:28:59;;;;;;;7.65;6.20;;;;;;;16.64;98.50;99835.69;5113681;28;20706;-72
2021/07/09 00:31:26;;;;;;;7.65;5.90;;;;;;;16.81;96.95;99828.91;5113988;28;20182;-74
2021/07/09 00:33:53;;;;;;;6.43;5.78;;;;;;;16.93;94.42;99824.34;5114000;28;20630;-71
2021/07/09 00:36:20;;;;;;;11.30;5.68;;;;;;;16.91;93.37;99825.44;5113316;28;20204;-73
2021/07/09 00:38:46;;;;;;;8.30;5.95;;;;;;;16.90;94.03;99827.31;5113737;28;20286;-73
2021/07/09 00:41:13;;;;;;;6.55;5.30;;;;;;;16.72;94.17;99835.06;5114134;28;20207;-73
2021/07/09 00:43:40;;;;;;;5.68;5.07;;;;;;;16.57;96.07;99830.84;5113457;28;20689;-72
2021/07/09 00:46:08;;;;;;;9.18;5.10;;;;;;;16.44;96.97;99836.41;5113507;28;20282;-72
2021/07/09 00:48:35;;;;;;;5.63;5.05;;;;;;;16.58;96.20;99836.16;5113739;28;20282;-72
2021/07/09 00:51:02;;;;;;;5.70;5.20;;;;;;;16.46;96.11;99837.13;5113127;28;20211;-72
2021/07/09 00:53:29;;;;;;;6.45;5.53;;;;;;;16.34;97.20;99838.94;5113500;28;20278;-73
2021/07/09 00:55:56;;;;;;;6.00;5.43;;;;;;;16.28;98.03;99828.59;5112899;28;20304;-73
2021/07/09 00:58:22;;;;;;;6.93;5.80;;;;;;;16.16;99.14;99827.66;5112792;28;20195;-73
2021/07/09 01:00:49;;;;;;;6.47;5.10;;;;;;;16.22;98.57;99831.78;5113298;28;20194;-73
2021/07/09 01:03:18;;;;;;;5.80;5.20;;;;;;;16.37;97.56;99829.69;5113065;28;20230;-74
2021/07/09 01:05:49;;;;;;;5.93;4.85;;;;;;;16.17;98.84;99828.56;5112644;28;20195;-74
2021/07/09 01:08:15;;;;;;;6.32;5.40;;;;;;;16.22;98.68;99824.47;5112549;28;20274;-72
2021/07/09 01:10:42;;;;;;;5.63;5.13;;;;;;;16.20;98.56;99822.88;5113493;28;20548;-72
2021/07/09 01:13:09;;;;;;;5.57;5.00;;;;;;;16.19;99.04;99822.00;5113025;28;20287;-73
2021/07/09 01:15:36;;;;;;;6.25;5.65;;;;;;;16.33;97.91;99820.94;5112694;28;20203;-72
2021/07/09 01:18:04;;;;;;;6.80;5.85;;;;;;;16.21;98.55;99820.06;5113237;28;20555;-72
2021/07/09 01:20:32;;;;;;;7.55;5.13;;;;;;;16.42;97.31;99816.63;5113204;28;20540;-73
2021/07/09 01:23:00;;;;;;;5.57;5.07;;;;;;;16.34;97.39;99813.63;5113102;28;20192;-73
2021/07/09 01:25:29;;;;;;;9.95;5.55;;;;;;;16.47;97.00;99820.69;5111932;28;20634;-74
2021/07/09 01:27:58;;;;;;;7.10;4.93;;;;;;;16.39;96.83;99814.13;5112487;28;20274;-72
2021/07/09 01:30:28;;;;;;;5.20;4.47;;;;;;;16.43;96.61;99818.34;5112313;28;20175;-72
2021/07/09 01:32:55;;;;;;;5.85;4.50;;;;;;;16.46;96.05;99805.38;5113410;28;20203;-73
2021/07/09 01:35:23;;;;;;;5.40;4.90;;;;;;;16.58;95.42;99803.53;5112342;28;20199;-73
2021/07/09 01:37:55;;;;;;;10.63;5.97;;;;;;;16.46;95.37;99808.09;5112716;28;20183;-73
2021/07/09 01:40:22;;;;;;;6.93;4.97;;;;;;;16.74;93.82;99808.63;5111902;28;20191;-73
2021/07/09 01:42:50;;;;;;;6.28;4.75;;;;;;;16.84;92.55;99806.03;5112087;28;20270;-72
2021/07/09 01:45:17;;;;;;;6.18;4.80;;;;;;;16.90;91.59;99810.13;5111903;28;20188;-73
2021/07/09 01:47:44;;;;;;;7.55;4.38;;;;;;;16.56;93.58;99819.09;5112330;28;20202;-73
2021/07/09 01:50:11;;;;;;;5.40;4.90;;;;;;;16.31;95.46;99808.47;5112804;28;20186;-73
2021/07/09 01:52:37;;;;;;;5.68;4.55;;;;;;;16.56;94.70;99812.81;5111272;28;20198;-72
2021/07/09 01:55:06;;;;;;;5.03;4.53;;;;;;;16.68;92.79;99811.81;5111852;28;20185;-73
2021/07/09 01:57:32;;;;;;;5.70;4.60;;;;;;;16.71;92.25;99808.88;5112007;28;20191;-73
2021/07/09 02:00:01;;;;;;;5.55;4.80;;;;;;;16.59;93.60;99802.53;5111974;28;20279;-74
2021/07/09 02:02:28;;;;;;;7.07;5.45;;;;;;;16.59;93.39;99805.25;5112133;28;20987;-72
2021/07/09 02:04:56;;;;;;;5.10;4.60;;;;;;;16.59;93.81;99801.69;5111981;28;20302;-72
2021/07/09 02:07:24;;;;;;;7.50;4.22;;;;;;;16.57;93.70;99798.22;5112971;28;20214;-72
2021/07/09 02:09:54;;;;;;;5.22;4.72;;;;;;;16.46;95.07;99797.25;5112328;28;20180;-74
2021/07/09 02:12:23;;;;;;;10.43;5.63;;;;;;;16.51;94.44;99806.84;5112496;28;20188;-73
2021/07/09 02:14:51;;;;;;;6.82;5.03;;;;;;;16.44;95.30;99799.22;5111864;28;20282;-73
2021/07/09 02:17:21;;;;;;;5.15;4.75;;;;;;;16.33;94.66;99801.91;5112186;28;20510;-73
2021/07/09 02:19:48;;;;;;;9.43;4.97;;;;;;;16.36;94.59;99796.22;5112583;28;20198;-73
2021/07/09 02:22:17;;;;;;;6.18;5.18;;;;;;;16.51;93.76;99793.25;5112554;28;20199;-73
2021/07/09 02:24:45;;;;;;;5.32;4.82;;;;;;;16.61;92.92;99783.41;5111734;28;20183;-73
2021/07/09 02:27:12;;;;;;;5.88;5.25;;;;;;;16.63;92.43;99793.16;5111863;28;20535;-72
2021/07/09 02:29:38;;;;;;;8.77;5.00;;;;;;;16.44;92.96;99788.34;5112006;28;20224;-72
2021/07/09 02:32:08;;;;;;;5.65;4.38;;;;;;;16.46;93.46;99796.34;5111251;28;20603;-74
2021/07/09 02:34:38;;;;;;;7.10;4.95;;;;;;;16.27;94.40;99797.81;5103641;28;20198;-73
2021/07/09 02:37:06;;;;;;;5.90;5.30;;;;;;;16.13;95.31;99802.59;5113591;28;20214;-72
2021/07/09 02:39:33;;;;;;;5.65;4.53;;;;;;;16.08;96.08;99797.53;5116496;28;20183;-72
2021/07/09 02:42:01;;;;;;;6.13;5.47;;;;;;;16.16;96.14;99802.34;5116312;28;20601;-73
2021/07/09 02:44:28;;;;;;;6.35;4.90;;;;;;;16.14;96.53;99797.03;5116418;28;20199;-73
2021/07/09 02:46:55;;;;;;;5.68;5.20;;;;;;;16.29;95.03;99802.28;5116225;28;20298;-73
2021/07/09 02:49:22;;;;;;;6.80;5.15;;;;;;;16.21;95.10;99802.84;5116309;28;20195;-73
2021/07/09 02:51:51;;;;;;;8.75;5.05;;;;;;;16.12;95.83;99792.72;5100420;28;20192;-73
2021/07/09 02:54:18;;;;;;;5.63;4.97;;;;;;;15.97;96.95;99795.66;5116348;28;20278;-73
2021/07/09 02:56:44;;;;;;;9.02;5.55;;;;;;;15.89;98.56;99806.22;5115463;28;20211;-73
2021/07/09 02:59:11;;;;;;;5.60;5.10;;;;;;;16.05;96.86;99801.38;5096942;28;20188;-73
2021/07/09 03:01:41;;;;;;;8.50;5.00;;;;;;;16.00;97.26;99800.84;5115354;28;20203;-73
2021/07/09 03:04:07;;;;;;;5.90;5.10;;;;;;;16.01;96.42;99802.59;5115557;28;20301;-72
2021/07/09 03:06:34;;;;;;;7.88;4.90;;;;;;;15.88;98.28;99807.22;5115334;28;20282;-74
2021/07/09 03:09:02;;;;;;;5.97;4.82;;;;;;;16.07;96.90;99803.94;5115113;28;20274;-72
2021/07/09 03:11:29;;;;;;;6.70;5.47;;;;;;;16.04;96.22;99802.34;5115343;28;20199;-73
2021/07/09 03:13:56;;;;;;;8.38;5.68;;;;;;;15.99;96.87;99803.69;5115378;28;20589;-71
2021/07/09 03:16:22;;;;;;;7.10;5.05;;;;;;;16.13;95.50;99806.19;5115097;28;20215;-73
2021/07/09 03:18:49;;;;;;;8.07;4.93;;;;;;;15.81;96.73;99819.53;5115453;28;20192;-72
2021/07/09 03:21:15;;;;;;;8.65;5.28;;;;;;;15.79;98.50;99814.22;5115197;28;20293;-72
2021/07/09 03:23:42;;;;;;;6.30;5.68;;;;;;;15.86;97.92;99828.19;5115093;28;20706;-73
2021/07/09 03:26:10;;;;;;;5.00;4.57;;;;;;;15.83;97.51;99833.88;5114372;28;20266;-71
2021/07/09 03:28:37;;;;;;;5.07;4.68;;;;;;;15.62;99.07;99825.44;5114997;28;20199;-73
2021/07/09 03:31:03;;;;;;;5.80;5.25;;;;;;;15.58;100.00;99827.53;5114952;28;20194;-73
2021/07/09 03:33:30;;;;;;;6.13;5.30;;;;;;;15.51;100.00;99828.09;5114755;28;20282;-73
2021/07/09 03:35:57;;;;;;;5.63;5.07;;;;;;;15.56;100.00;99826.78;5114192;28;20219;-73
2021/07/09 03:38:24;;;;;;;6.72;5.30;;;;;;;15.69;100.00;99823.13;5114325;28;20195;-73
2021/07/09 03:40:50;;;;;;;9.35;6.30;;;;;;;15.72;99.07;99823.81;5114887;28;20201;-73
2021/07/09 03:43:18;;;;;;;6.63;4.78;;;;;;;15.98;96.49;99827.25;5114435;28;20202;-73
2021/07/09 03:45:45;;;;;;;5.85;5.22;;;;;;;16.02;95.34;99826.03;5114713;28;20206;-73
2021/07/09 03:48:11;;;;;;;6.22;5.10;;;;;;;15.98;95.82;99835.38;5114106;28;20184;-73
2021/07/09 03:50:39;;;;;;;5.57;4.85;;;;;;;15.92;95.58;99835.00;5114521;28;20671;-72
2021/07/09 03:53:07;;;;;;;6.32;4.95;;;;;;;15.85;96.37;99840.03;5114979;28;20531;-73
2021/07/09 03:55:34;;;;;;;7.13;5.38;;;;;;;15.96;95.52;99848.22;5114327;28;20279;-73
2021/07/09 03:58:00;;;;;;;7.45;5.60;;;;;;;16.08;94.29;99840.09;5114651;28;20191;-72
2021/07/09 04:00:28;;;;;;;6.95;6.18;;;;;;;16.00;94.65;99840.72;5113916;28;20191;-73
2021/07/09 04:02:55;;;;;;;6.15;5.50;;;;;;;16.07;94.06;99836.53;5113051;28;20229;-73
2021/07/09 04:05:21;;;;;;;6.70;5.70;;;;;;;16.15;93.41;99839.53;5113622;28;20187;-73
2021/07/09 04:07:48;;;;;;;11.40;5.57;;;;;;;16.09;94.08;99842.72;5114710;28;20195;-73
2021/07/09 04:10:16;;;;;;;6.07;5.32;;;;;;;16.07;93.96;99843.81;5114808;28;20684;-73
2021/07/09 04:12:44;;;;;;;10.05;5.90;;;;;;;16.04;94.41;99845.78;5113688;28;20279;-73
2021/07/09 04:15:11;;;;;;;8.25;5.75;;;;;;;16.08;94.42;99851.88;5114295;28;20230;-73
2021/07/09 04:17:39;;;;;;;7.97;7.18;;;;;;;16.13;93.79;99849.66;5113771;28;20227;-73
2021/07/09 04:20:08;;;;;;;6.20;5.60;;;;;;;16.14;93.87;99845.06;5114019;28;20242;-72
2021/07/09 04:22:35;;;;;;;7.05;5.80;;;;;;;16.11;94.13;99850.75;5114205;28;20202;-72
2021/07/09 04:25:01;;;;;;;7.13;5.90;;;;;;;16.15;93.81;99850.41;5113837;28;20192;-73
2021/07/09 04:27:28;;;;;;;6.00;5.35;;;;;;;16.04;94.81;99850.34;5114264;28;20281;-73
2021/07/09 04:29:55;;;;;;;8.73;5.90;;;;;;;16.02;95.15;99850.47;5113896;28;20195;-73
2021/07/09 04:32:22;;;;;;;8.98;6.40;;;;;;;15.97;95.27;99849.97;5112036;28;20684;-73
2021/07/09 04:34:50;;;;;;;9.45;6.07;;;;;;;15.75;97.39;99842.56;5113948;28;20190;-72
2021/07/09 04:37:16;;;;;;;9.25;6.38;;;;;;;15.63;99.28;99844.34;5114251;28;20543;-73
2021/07/09 04:39:43;;;;;;;8.15;6.53;;;;;;;15.56;100.00;99847.66;5113695;28;20608;-72
2021/07/09 04:42:11;;;;;;;15.13;7.65;;;;;;;15.65;100.00;99849.66;5113399;28;20195;-72
2021/07/09 04:44:38;;;;;;;7.90;6.55;;;;;;;15.80;98.97;99847.66;5113214;28;20187;-73
2021/07/09 04:47:05;;;;;;;8.95;6.20;;;;;;;15.71;99.73;99840.22;5114632;27;20262;-74
2021/07/09 04:49:31;;;;;;;11.40;7.05;;;;;;;15.60;100.00;99847.31;5114812;27;20595;-73
2021/07/09 04:51:59;;;;;;;11.73;6.30;;;;;;;15.79;98.34;99844.09;5117246;27;20201;-73
2021/07/09 04:54:26;;;;;;;9.88;6.80;;;;;;;15.90;97.16;99853.28;5115146;27;20288;-73
2021/07/09 04:56:52;;;;;;;7.80;6.70;;;;;;;15.69;97.86;99855.72;5114509;27;20303;-72
2021/07/09 04:59:19;;;;;;;9.93;6.68;;;;;;;15.89;97.13;99846.09;5113605;27;20198;-72
2021/07/09 05:01:46;;;;;;;9.65;6.82;;;;;;;15.96;96.67;99853.66;5113021;28;20286;-73
2021/07/09 05:04:12;;;;;;;15.50;7.75;;;;;;;16.09;95.25;99852.72;5112725;28;20227;-73
2021/07/09 05:06:39;;;;;;;11.60;8.02;;;;;;;16.19;94.08;99845.56;5112527;28;20346;-72
2021/07/09 05:09:07;;;;;;;9.60;7.40;;;;;;;16.25;94.35;99845.97;5113345;28;20523;-72
2021/07/09 05:11:35;;;;;;;10.77;6.30;;;;;;;16.35;93.13;99843.41;5112360;28;20195;-73
2021/07/09 05:14:03;;;;;;;9.52;7.90;;;;;;;16.57;91.57;99845.28;5112419;28;20199;-73
2021/07/09 05:16:29;;;;;;;11.15;7.32;;;;;;;16.71;89.96;99844.22;5113011;28;20230;-73
2021/07/09 05:18:56;;;;;;;9.15;6.53;;;;;;;16.67;89.62;99851.75;5112510;28;20282;-73
2021/07/09 05:21:25;;;;;;;9.48;7.03;;;;;;;16.55;90.93;99854.56;5111571;28;20215;-74
2021/07/09 05:23:51;;;;;;;11.63;8.00;;;;;;;16.71;89.72;99846.94;5112676;28;20180;-73
2021/07/09 05:26:20;;;;;;;10.13;6.93;;;;;;;16.86;88.67;99848.44;5112756;28;20231;-73
2021/07/09 05:28:46;;;;;;;7.15;6.45;;;;;;;16.67;89.44;99854.47;5112654;28;20199;-72
2021/07/09 05:31:13;;;;;;;8.80;5.90;;;;;;;16.82;89.08;99846.09;5113051;28;20213;-72
2021/07/09 05:33:39;;;;;;;8.18;6.40;;;;;;;16.60;90.28;99852.38;5112813;28;20191;-73
2021/07/09 05:36:06;;;;;;;7.80;6.70;;;;;;;16.62;90.90;99855.78;5112860;28;20286;-74
2021/07/09 05:38:32;;;;;;;10.32;6.78;;;;;;;16.76;90.45;99858.31;5112834;28;20195;-73
2021/07/09 05:40:59;;;;;;;9.70;6.75;;;;;;;16.79;89.89;99859.91;5112733;28;20180;-74
2021/07/09 05:43:27;;;;;;;10.90;6.70;;;;;;;16.99;88.79;99863.78;5112779;28;20543;-72
2021/07/09 05:45:54;;;;;;;7.70;7.00;;;;;;;16.82;89.83;99863.28;5112630;28;20199;-73
2021/07/09 05:48:21;;;;;;;20.98;7.65;;;;;;;16.91;89.67;99863.53;5112446;28;20203;-72
2021/07/09 05:50:47;;;;;;;8.93;7.88;;;;;;;17.10;88.67;99869.22;5111867;28;20183;-75
2021/07/09 05:53:14;;;;;;;10.20;6.80;;;;;;;17.25;87.49;99870.69;5112284;28;20290;-73
2021/07/09 05:55:40;;;;;;;8.50;6.80;;;;;;;17.12;88.02;99874.53;5112051;28;20202;-72
2021/07/09 05:58:07;;;;;;;9.82;6.93;;;;;;;17.30;87.38;99873.03;5112266;28;20210;-74
2021/07/09 06:00:35;;;;;;;8.85;7.68;;;;;;;17.19;88.27;99870.34;5112264;28;20221;-73
2021/07/09 06:03:02;;;;;;;12.10;8.43;;;;;;;17.40;87.49;99873.16;5112321;28;20693;-73
2021/07/09 06:05:29;;;;;;;9.63;7.65;;;;;;;17.51;86.45;99867.69;5112530;28;20184;-73
2021/07/09 06:07:56;;;;;;;11.75;7.88;;;;;;;17.77;85.25;99872.81;5112404;28;20707;-73
2021/07/09 06:10:25;;;;;;;8.93;7.45;;;;;;;17.67;84.50;99868.13;5112241;28;20245;-72
2021/07/09 06:12:51;;;;;;;9.43;8.23;;;;;;;17.77;84.14;99868.22;5111343;28;20188;-73
2021/07/09 06:15:18;;;;;;;12.75;8.80;;;;;;;17.79;83.76;99865.38;5112375;28;20215;-73
2021/07/09 06:17:49;;;;;;;10.68;9.68;;;;;;;17.69;84.78;99868.88;5111446;28;20223;-74
2021/07/09 06:20:16;;;;;;;9.00;8.10;;;;;;;17.76;84.04;99873.81;5111947;28;20557;-74
2021/07/09 06:22:44;;;;;;;12.35;9.38;;;;;;;18.06;82.72;99879.41;5111765;28;20279;-74
2021/07/09 06:25:11;;;;;;;12.13;9.30;;;;;;;17.83;83.66;99875.06;5111834;28;20212;-74
2021/07/09 06:27:38;;;;;;;14.30;10.80;;;;;;;18.00;83.54;99876.34;5112061;28;20514;-72
2021/07/09 06:30:07;;;;;;;14.85;9.80;;;;;;;18.09;82.94;99876.44;5112170;28;20190;-73
2021/07/09 06:32:34;;;;;;;10.90;8.95;;;;;;;18.35;81.38;99865.16;5111972;28;20201;-74
2021/07/09 06:35:02;;;;;;;11.95;8.55;;;;;;;18.28;81.39;99874.88;5111151;28;20189;-73
2021/07/09 06:37:28;;;;;;;13.30;8.65;;;;;;;18.28;81.64;99877.59;5111655;28;20232;-72
2021/07/09 06:39:55;;;;;;;11.63;9.75;;;;;;;18.28;81.75;99886.63;5111909;28;20197;-75
2021/07/09 06:42:21;;;;;;;10.45;8.68;;;;;;;18.53;80.91;99885.38;5111980;28;20210;-73
2021/07/09 06:44:48;;;;;;;10.40;9.20;;;;;;;18.43;80.59;99889.03;5111806;28;20604;-72
2021/07/09 06:47:14;;;;;;;11.50;9.23;;;;;;;18.46;81.20;99884.19;5111070;28;20188;-73
2021/07/09 06:49:41;;;;;;;10.45;8.45;;;;;;;18.68;79.96;99876.88;5111246;28;20224;-73
2021/07/09 06:52:10;;;;;;;10.15;8.30;;;;;;;18.43;80.95;99879.00;5111059;28;20286;-72
2021/07/09 06:54:37;;;;;;;12.05;8.52;;;;;;;18.40;81.41;99890.16;5111762;28;20246;-72
2021/07/09 06:57:04;;;;;;;11.23;9.65;;;;;;;18.90;79.68;99884.94;5111094;28;20235;-75
2021/07/09 06:59:30;;;;;;;10.82;8.48;;;;;;;18.79;78.57;99898.66;5111889;28;20231;-73
2021/07/09 07:01:57;;;;;;;13.70;8.48;;;;;;;18.95;78.94;99895.44;5111495;28;20200;-72
2021/07/09 07:04:24;;;;;;;11.30;8.00;;;;;;;19.18;77.21;99890.66;5111528;28;20655;-72
2021/07/09 07:06:51;;;;;;;10.52;9.43;;;;;;;18.91;78.36;99893.97;5111258;28;20192;-73
2021/07/09 07:09:19;;;;;;;10.48;8.40;;;;;;;19.33;77.27;99889.28;5111284;28;20624;-73
2021/07/09 07:11:46;;;;;;;10.70;8.65;;;;;;;19.25;76.60;99897.28;5111346;28;20273;-73
2021/07/09 07:14:13;;;;;;;10.43;7.90;;;;;;;19.48;76.54;99894.34;5111074;28;20205;-72
2021/07/09 07:16:40;;;;;;;9.80;7.70;;;;;;;19.63;74.96;99901.16;5110682;28;20200;-72
2021/07/09 07:19:06;;;;;;;13.35;8.73;;;;;;;19.55;76.13;99898.25;5110933;28;20197;-75
2021/07/09 07:21:33;;;;;;;9.90;8.90;;;;;;;19.72;74.91;99888.56;5111045;28;20191;-73
2021/07/09 07:23:59;;;;;;;10.80;9.38;;;;;;;19.77;74.74;99897.19;5112572;28;20715;-73
2021/07/09 07:26:27;;;;;;;11.37;9.00;;;;;;;19.88;74.46;99898.94;5115290;28;20286;-73
2021/07/09 07:28:54;;;;;;;11.10;9.80;;;;;;;19.64;75.38;99896.53;5114697;28;20930;-71
2021/07/09 07:31:20;;;;;;;13.10;9.95;;;;;;;19.79;74.70;99896.03;5114957;28;20213;-72
2021/07/09 07:33:47;;;;;;;10.68;9.35;;;;;;;20.04;73.89;99888.28;5115181;28;20681;-73
2021/07/09 07:36:14;;;;;;;11.50;8.57;;;;;;;20.18;74.11;99895.22;5115123;28;20543;-73
2021/07/09 07:38:41;;;;;;;13.50;10.13;;;;;;;19.98;74.30;99899.78;5114615;28;20855;-72
2021/07/09 07:41:08;;;;;;;11.63;10.50;;;;;;;20.13;73.58;99902.97;5114628;28;20196;-72
2021/07/09 07:43:36;;;;;;;12.43;10.35;;;;;;;20.31;72.27;99895.78;5114728;28;20786;-72
2021/07/09 07:46:03;;;;;;;11.63;10.35;;;;;;;20.57;71.27;99898.78;5115573;27;20698;-72
2021/07/09 07:48:29;;;;;;;11.33;10.13;;;;;;;20.27;72.48;99898.94;5114985;28;20187;-72
2021/07/09 07:50:56;;;;;;;12.65;10.82;;;;;;;20.43;72.55;99896.50;5114113;28;20435;-72
2021/07/09 07:53:22;;;;;;;11.55;9.60;;;;;;;20.96;70.62;99898.72;5114194;28;20218;-74
2021/07/09 07:55:49;;;;;;;11.67;10.10;;;;;;;21.16;69.13;99898.66;5113902;28;20256;-73
2021/07/09 07:58:16;;;;;;;10.63;9.53;;;;;;;21.30;68.12;99889.06;5114761;28;20467;-74
2021/07/09 08:00:44;;;;;;;10.30;9.30;;;;;;;21.37;67.61;99901.16;5114036;28;20532;-73
2021/07/09 08:03:10;;;;;;;14.67;10.80;;;;;;;21.20;67.66;99897.34;5113691;28;20479;-73
2021/07/09 08:05:37;;;;;;;12.50;11.17;;;;;;;20.79;69.71;99902.22;5114815;28;20490;-75
2021/07/09 08:08:08;;;;;;;12.20;9.90;;;;;;;21.26;68.90;99888.53;5114156;28;20437;-72
2021/07/09 08:10:35;;;;;;;15.43;10.83;;;;;;;21.51;67.56;99899.84;5114417;28;20536;-73
2021/07/09 08:13:02;;;;;;;15.80;12.17;;;;;;;21.54;66.97;99899.53;5113728;28;20444;-73
2021/07/09 08:15:28;;;;;;;14.87;11.53;;;;;;;21.61;66.25;99903.38;5113896;28;20452;-73
2021/07/09 08:17:56;;;;;;;10.80;9.57;;;;;;;21.96;64.86;99907.22;5113164;28;20481;-73
2021/07/09 08:20:23;;;;;;;13.30;11.20;;;;;;;22.06;64.31;99906.09;5113867;28;20433;-73
2021/07/09 08:22:50;;;;;;;12.97;11.43;;;;;;;22.23;63.27;99901.69;5117581;27;20447;-73
2021/07/09 08:25:17;;;;;;;12.80;10.80;;;;;;;22.19;63.70;99900.25;5110881;28;20523;-73
2021/07/09 08:27:44;;;;;;;12.63;11.40;;;;;;;22.17;63.21;99895.94;5107414;28;20517;-76
2021/07/09 08:30:12;;;;;;;12.63;11.43;;;;;;;22.08;64.37;99903.22;5112443;28;20906;-74
2021/07/09 08:32:40;;;;;;;16.03;12.30;;;;;;;22.64;62.16;99891.06;5112722;28;20447;-74
2021/07/09 08:35:08;;;;;;;14.50;13.00;;;;;;;22.71;61.54;99898.66;5113253;28;20425;-74
2021/07/09 08:37:35;;;;;;;13.50;11.80;;;;;;;22.41;61.51;99901.69;5113599;28;20813;-75
2021/07/09 08:40:03;;;;;;;14.07;12.67;;;;;;;22.47;62.40;99898.28;5113441;28;20445;-73
2021/07/09 08:42:29;;;;;;;13.27;11.03;;;;;;;21.61;63.97;99897.91;5113250;28;20450;-74
2021/07/09 08:44:56;;;;;;;16.73;12.13;;;;;;;21.83;64.55;99904.84;5112865;28;20537;-74
2021/07/09 08:47:28;;;;;;;14.30;12.90;;;;;;;22.42;62.07;99891.56;5113389;28;20433;-73
2021/07/09 08:49:55;;;;;;;14.90;13.33;;;;;;;22.34;63.55;99895.09;5113685;28;20413;-73
2021/07/09 08:52:23;;;;;;;18.93;10.97;;;;;;;22.30;64.40;99898.31;5112784;28;20448;-73
2021/07/09 08:54:50;;;;;;;13.17;11.83;;;;;;;22.14;65.12;99897.13;5113233;28;20788;-74
2021/07/09 08:57:17;;;;;;;15.13;11.07;;;;;;;22.34;63.62;99895.09;5113497;28;20479;-75
2021/07/09 08:59:43;;;;;;;13.80;12.23;;;;;;;22.85;61.82;99881.59;5112822;28;20437;-74
2021/07/09 09:02:10;;;;;;;13.07;11.70;;;;;;;23.08;60.52;99882.78;5113045;28;20527;-73
2021/07/09 09:04:38;;;;;;;13.00;11.47;;;;;;;23.06;60.97;99883.97;5112701;28;20487;-72
2021/07/09 09:07:07;;;;;;;13.67;10.80;;;;;;;22.67;61.90;99881.63;5112646;28;20441;-73
2021/07/09 09:09:37;;;;;;;12.27;10.97;;;;;;;22.81;61.55;99886.53;5112662;28;20482;-73
2021/07/09 09:12:07;;;;;;;12.57;11.43;;;;;;;22.70;61.92;99881.31;5113378;28;20891;-73
2021/07/09 09:14:35;;;;;;;15.50;12.50;;;;;;;22.90;61.23;99880.06;5113035;28;20414;-74
2021/07/09 09:17:02;;;;;;;13.10;11.80;;;;;;;22.83;61.51;99883.63;5112545;28;20528;-73
2021/07/09 09:19:28;;;;;;;12.23;11.03;;;;;;;22.71;61.67;99879.44;5112643;28;20476;-74
2021/07/09 09:22:13;;;;;;;12.37;11.13;;;;;;;22.87;60.40;99888.63;5112646;28;20437;-73
2021/07/09 09:24:41;;;;;;;11.40;10.30;;;;;;;23.34;58.67;99889.25;5111101;28;20524;-73
2021/07/09 09:27:22;;;;;;;15.57;12.40;;;;;;;22.63;61.31;99881.09;5112342;28;20437;-73
2021/07/09 09:29:48;;;;;;;13.57;12.20;;;;;;;22.41;62.28;99887.97;5113006;28;20492;-73
2021/07/09 09:32:15;;;;;;;16.60;14.30;;;;;;;22.27;61.67;99892.13;5113341;27;20437;-74
2021/07/09 09:34:43;;;;;;;13.60;12.30;;;;;;;22.47;61.51;99884.56;5112054;28;20445;-73
2021/07/09 09:37:11;;;;;;;14.17;12.77;;;;;;;22.27;60.51;99883.91;5112237;28;20452;-72
2021/07/09 09:39:42;;;;;;;15.23;13.63;;;;;;;22.56;59.49;99871.78;5111487;28;20421;-75
2021/07/09 09:42:17;;;;;;;15.43;12.37;;;;;;;23.33;58.25;99869.19;5112271;28;20969;-75
2021/07/09 09:44:45;;;;;;;16.93;12.47;;;;;;;24.16;56.13;99862.91;5112426;28;20436;-73
2021/07/09 09:47:13;;;;;;;16.00;12.93;;;;;;;24.71;54.32;99855.88;5110600;28;20780;-73
2021/07/09 09:49:40;;;;;;;15.47;11.10;;;;;;;24.53;53.34;99850.56;5110841;28;20434;-74
2021/07/09 09:52:07;;;;;;;11.70;10.50;;;;;;;24.37;52.94;99867.91;5111296;28;20481;-74
2021/07/09 09:54:34;;;;;;;13.77;11.10;;;;;;;24.89;51.54;99852.91;5111218;28;20477;-74
2021/07/09 09:57:04;;;;;;;11.83;10.50;;;;;;;24.78;52.55;99854.13;5108786;28;20471;-73
2021/07/09 09:59:32;;;;;;;11.70;10.50;;;;;;;23.64;54.60;99868.63;5110373;28;20574;-74
2021/07/09 10:02:01;;;;;;;12.03;10.53;;;;;;;23.15;56.56;99857.44;5111995;28;20433;-73
2021/07/09 10:04:31;;;;;;;12.37;11.10;;;;;;;23.49;56.19;99855.53;5111268;28;20479;-74
2021/07/09 10:07:00;;;;;;;10.90;9.80;;;;;;;23.44;56.89;99859.78;5112645;27;20991;-73
2021/07/09 10:09:29;;;;;;;14.33;11.70;;;;;;;22.87;58.88;99865.81;5111487;28;20470;-74
2021/07/09 10:11:56;;;;;;;12.10;10.80;;;;;;;23.05;59.44;99860.31;5111601;28;20457;-72
2021/07/09 10:14:27;;;;;;;12.73;11.13;;;;;;;23.28;58.61;99860.59;5111090;28;20440;-72
2021/07/09 10:16:59;;;;;;;12.70;11.40;;;;;;;23.35;58.98;99864.38;5110982;28;20754;-73
2021/07/09 10:19:28;;;;;;;12.10;10.80;;;;;;;23.19;59.20;99862.44;5110657;28;20507;-73
2021/07/09 10:21:55;;;;;;;12.63;11.17;;;;;;;22.83;59.49;99864.41;5110953;28;20451;-72
2021/07/09 10:24:21;;;;;;;17.17;11.00;;;;;;;22.67;59.90;99867.91;5111757;28;20504;-74
2021/07/09 10:26:51;;;;;;;12.00;10.87;;;;;;;22.90;59.90;99866.34;5110409;28;20548;-73
2021/07/09 10:29:20;;;;;;;13.17;11.97;;;;;;;23.17;58.81;99858.97;5110686;28;20494;-73
2021/07/09 10:31:49;;;;;;;15.80;14.13;;;;;;;23.69;57.58;99853.31;5111030;28;20422;-74
2021/07/09 10:34:37;;;;;;;10.93;9.90;;;;;;;24.24;54.72;99849.16;5111002;28;20437;-73
2021/07/09 10:37:06;;;;;;;10.93;10.00;;;;;;;24.41;53.66;99857.41;5110665;28;20445;-73
2021/07/09 10:39:35;;;;;;;10.33;9.10;;;;;;;24.52;52.97;99846.94;5110977;28;20548;-72
2021/07/09 10:42:30;;;;;;;9.57;8.87;;;;;;;24.62;51.95;99846.75;5123993;28;20933;-73
2021/07/09 10:45:15;;;;;;;9.80;8.90;;;;;;;24.63;51.96;99853.16;5111543;28;20435;-72
2021/07/09 10:47:46;;;;;;;8.93;8.23;;;;;;;24.22;52.98;99842.09;5111568;28;20528;-74
2021/07/09 10:50:15;;;;;;;10.40;9.00;;;;;;;23.75;52.37;99843.59;5111013;28;20433;-73
2021/07/09 10:52:58;;;;;;;9.57;8.10;;;;;;;23.46;52.56;99852.25;5100636;28;20750;-74
2021/07/09 10:55:53;;;;;;;8.20;7.30;;;;;;;23.23;53.85;99841.00;5111788;28;20501;-74
2021/07/09 10:58:25;;;;;;;8.07;7.27;;;;;;;23.39;53.72;99843.81;5111328;28;20470;-74
2021/07/09 11:00:55;;;;;;;9.00;7.93;;;;;;;23.46;52.77;99847.59;5115212;28;20811;-73
2021/07/09 11:03:33;;;;;;;8.07;7.37;;;;;;;23.71;52.33;99844.94;5115180;28;20487;-72
2021/07/09 11:06:05;;;;;;;9.10;7.90;;;;;;;23.83;52.32;99838.09;5103177;28;20750;-73
2021/07/09 11:09:03;;;;;;;8.67;7.87;;;;;;;24.16;51.69;99840.06;5115187;28;20922;-73
2021/07/09 11:11:31;;;;;;;10.10;9.00;;;;;;;24.37;51.04;99842.28;5115666;28;20424;-72
2021/07/09 11:14:03;;;;;;;9.60;8.70;;;;;;;24.52;50.78;99837.84;5114885;28;20433;-75
2021/07/09 11:16:31;;;;;;;8.40;7.70;;;;;;;24.35;51.40;99837.81;5115100;28;20424;-74
2021/07/09 11:19:07;;;;;;;8.67;7.90;;;;;;;24.55;50.97;99843.84;5115248;28;20523;-74
2021/07/09 11:21:57;;;;;;;9.70;8.70;;;;;;;24.19;52.63;99834.19;5115197;28;20425;-74
2021/07/09 11:24:27;;;;;;;9.67;8.80;;;;;;;24.04;53.36;99840.38;5114610;28;20440;-73
2021/07/09 11:26:55;;;;;;;9.00;8.13;;;;;;;23.93;53.41;99835.22;5115277;28;20799;-72
2021/07/09 11:29:25;;;;;;;8.50;7.60;;;;;;;24.03;52.97;99838.66;5115247;28;20429;-73
2021/07/09 11:31:54;;;;;;;8.73;6.90;;;;;;;23.79;53.71;99838.59;5115044;28;20444;-74